sensor_id;sensor_type;location;lat;lon;timestamp;pressure;altitude;pressure_sealevel;temperature;humidity
23281;BME280;11809;56.390;-3.266;2023-11-21T00:00:31;101843.00;;;15.32;59.36
23281;BME280;11809;56.390;-3.266;2023-11-21T00:03:02;101851.06;;;15.29;59.12
23281;BME280;11809;56.390;-3.266;2023-11-21T00:05:35;101841.69;;;15.20;59.54
23281;BME280;11809;56.390;-3.266;2023-11-21T00:08:05;101841.81;;;15.17;59.77
23281;BME280;11809;56.390;-3.266;2023-11-21T00:10:36;101841.03;;;15.15;59.77
23281;BME280;11809;56.390;-3.266;2023-11-21T00:13:07;101843.00;;;15.10;59.87
23281;BME280;11809;56.390;-3.266;2023-11-21T00:15:39;101849.22;;;15.09;59.92
23281;BME280;11809;56.390;-3.266;2023-11-21T00:18:10;101851.94;;;15.07;59.91
23281;BME280;11809;56.390;-3.266;2023-11-21T00:20:44;101856.47;;;15.04;59.90
23281;BME280;11809;56.390;-3.266;2023-11-21T00:23:14;101857.56;;;14.98;60.07
23281;BME280;11809;56.390;-3.266;2023-11-21T00:25:45;101864.72;;;14.96;60.00
23281;BME280;11809;56.390;-3.266;2023-11-21T00:28:16;101866.50;;;14.96;60.57
23281;BME280;11809;56.390;-3.266;2023-11-21T00:30:46;101869.34;;;14.91;60.14
23281;BME280;11809;56.390;-3.266;2023-11-21T00:33:16;101870.31;;;14.89;60.39
23281;BME280;11809;56.390;-3.266;2023-11-21T00:35:49;101866.91;;;14.85;60.45
23281;BME280;11809;56.390;-3.266;2023-11-21T00:38:20;101872.34;;;14.82;60.41
23281;BME280;11809;56.390;-3.266;2023-11-21T00:40:50;101857.69;;;14.74;60.38
23281;BME280;11809;56.390;-3.266;2023-11-21T00:43:23;101861.00;;;14.79;60.63
23281;BME280;11809;56.390;-3.266;2023-11-21T00:45:53;101861.19;;;14.74;60.80
23281;BME280;11809;56.390;-3.266;2023-11-21T00:48:24;101863.00;;;14.72;60.69
23281;BME280;11809;56.390;-3.266;2023-11-21T00:50:57;101870.22;;;14.69;60.82
23281;BME280;11809;56.390;-3.266;2023-11-21T00:53:28;101869.34;;;14.68;60.73
23281;BME280;11809;56.390;-3.266;2023-11-21T00:55:58;101873.84;;;14.66;60.79
23281;BME280;11809;56.390;-3.266;2023-11-21T00:58:29;101885.44;;;14.62;60.85
23281;BME280;11809;56.390;-3.266;2023-11-21T01:00:57;101896.13;;;14.59;61.02
23281;BME280;11809;56.390;-3.266;2023-11-21T01:03:28;101883.19;;;14.51;61.20
23281;BME280;11809;56.390;-3.266;2023-11-21T01:06:01;101907.69;;;14.56;61.28
23281;BME280;11809;56.390;-3.266;2023-11-21T01:08:31;101899.00;;;14.53;61.26
23281;BME280;11809;56.390;-3.266;2023-11-21T01:11:03;101908.69;;;14.54;61.56
23281;BME280;11809;56.390;-3.266;2023-11-21T01:13:35;101913.97;;;14.54;61.57
23281;BME280;11809;56.390;-3.266;2023-11-21T01:16:07;101915.81;;;14.52;61.73
23281;BME280;11809;56.390;-3.266;2023-11-21T01:18:38;101919.38;;;14.51;61.80
23281;BME280;11809;56.390;-3.266;2023-11-21T01:21:11;101917.75;;;14.47;61.85
23281;BME280;11809;56.390;-3.266;2023-11-21T01:23:42;101923.97;;;14.46;61.77
23281;BME280;11809;56.390;-3.266;2023-11-21T01:26:12;101926.81;;;14.40;61.98
23281;BME280;11809;56.390;-3.266;2023-11-21T01:28:42;101936.38;;;14.44;62.13
23281;BME280;11809;56.390;-3.266;2023-11-21T01:31:13;101934.72;;;14.41;61.80
23281;BME280;11809;56.390;-3.266;2023-11-21T01:33:43;101943.56;;;14.40;61.93
23281;BME280;11809;56.390;-3.266;2023-11-21T01:36:16;101941.94;;;14.36;62.13
23281;BME280;11809;56.390;-3.266;2023-11-21T01:38:47;101946.47;;;14.33;62.60
23281;BME280;11809;56.390;-3.266;2023-11-21T01:41:18;101953.50;;;14.34;62.51
23281;BME280;11809;56.390;-3.266;2023-11-21T01:43:48;101961.38;;;14.35;62.19
23281;BME280;11809;56.390;-3.266;2023-11-21T01:46:18;101959.66;;;14.34;62.41
23281;BME280;11809;56.390;-3.266;2023-11-21T01:48:49;101958.78;;;14.34;62.51
23281;BME280;11809;56.390;-3.266;2023-11-21T01:51:23;101964.97;;;14.33;62.12
23281;BME280;11809;56.390;-3.266;2023-11-21T01:53:54;101972.91;;;14.33;62.55
23281;BME280;11809;56.390;-3.266;2023-11-21T01:56:24;101969.47;;;14.29;62.54
23281;BME280;11809;56.390;-3.266;2023-11-21T01:58:54;101966.00;;;14.29;62.39
23281;BME280;11809;56.390;-3.266;2023-11-21T02:01:25;101965.13;;;14.28;62.39
23281;BME280;11809;56.390;-3.266;2023-11-21T02:03:55;101960.91;;;14.23;62.34
23281;BME280;11809;56.390;-3.266;2023-11-21T02:06:28;101970.41;;;14.28;62.27
23281;BME280;11809;56.390;-3.266;2023-11-21T02:09:01;101973.09;;;14.27;62.41
23281;BME280;11809;56.390;-3.266;2023-11-21T02:11:31;101977.56;;;14.25;62.13
23281;BME280;11809;56.390;-3.266;2023-11-21T02:14:02;101987.34;;;14.23;62.24
23281;BME280;11809;56.390;-3.266;2023-11-21T02:16:34;101990.88;;;14.22;62.41
23281;BME280;11809;56.390;-3.266;2023-11-21T02:19:07;101981.53;;;14.12;62.31
23281;BME280;11809;56.390;-3.266;2023-11-21T02:21:44;101989.28;;;14.18;62.38
23281;BME280;11809;56.390;-3.266;2023-11-21T02:24:19;102001.69;;;14.16;62.51
23281;BME280;11809;56.390;-3.266;2023-11-21T02:26:50;101991.34;;;14.08;62.86
23281;BME280;11809;56.390;-3.266;2023-11-21T02:29:20;102006.97;;;14.16;62.36
23281;BME280;11809;56.390;-3.266;2023-11-21T02:31:55;102001.78;;;14.13;62.65
23281;BME280;11809;56.390;-3.266;2023-11-21T02:34:26;102001.78;;;14.13;62.38
23281;BME280;11809;56.390;-3.266;2023-11-21T02:36:57;102004.53;;;14.10;62.92
23281;BME280;11809;56.390;-3.266;2023-11-21T02:39:30;102018.75;;;14.06;62.83
23281;BME280;11809;56.390;-3.266;2023-11-21T02:42:00;102021.38;;;14.06;63.00
23281;BME280;11809;56.390;-3.266;2023-11-21T02:44:31;102017.94;;;14.04;63.23
23281;BME280;11809;56.390;-3.266;2023-11-21T02:47:01;102018.84;;;14.03;63.03
23281;BME280;11809;56.390;-3.266;2023-11-21T02:49:32;102025.94;;;14.02;62.99
23281;BME280;11809;56.390;-3.266;2023-11-21T02:52:03;102024.13;;;14.03;63.08
23281;BME280;11809;56.390;-3.266;2023-11-21T02:54:36;102025.09;;;14.00;62.82
23281;BME280;11809;56.390;-3.266;2023-11-21T02:57:06;102040.94;;;14.00;62.75
23281;BME280;11809;56.390;-3.266;2023-11-21T02:59:34;102047.19;;;13.99;62.80
23281;BME280;11809;56.390;-3.266;2023-11-21T03:02:05;102041.19;;;13.92;62.96
23281;BME280;11809;56.390;-3.266;2023-11-21T03:04:35;102051.69;;;13.95;63.05
23281;BME280;11809;56.390;-3.266;2023-11-21T03:07:06;102041.09;;;13.95;62.87
23281;BME280;11809;56.390;-3.266;2023-11-21T03:09:39;102037.84;;;13.87;63.11
23281;BME280;11809;56.390;-3.266;2023-11-21T03:12:10;102051.84;;;13.91;63.39
23281;BME280;11809;56.390;-3.266;2023-11-21T03:14:40;102049.22;;;13.89;63.25
23281;BME280;11809;56.390;-3.266;2023-11-21T03:17:10;102057.16;;;13.89;63.27
23281;BME280;11809;56.390;-3.266;2023-11-21T03:19:42;102071.22;;;13.91;63.00
23281;BME280;11809;56.390;-3.266;2023-11-21T03:22:12;102074.75;;;13.90;63.10
23281;BME280;11809;56.390;-3.266;2023-11-21T03:24:45;102081.88;;;13.88;63.05
23281;BME280;11809;56.390;-3.266;2023-11-21T03:27:16;102091.56;;;13.88;63.28
23281;BME280;11809;56.390;-3.266;2023-11-21T03:29:47;102092.47;;;13.87;63.20
23281;BME280;11809;56.390;-3.266;2023-11-21T03:32:18;102088.28;;;13.80;63.39
23281;BME280;11809;56.390;-3.266;2023-11-21T03:34:55;102098.69;;;13.86;63.12
23281;BME280;11809;56.390;-3.266;2023-11-21T03:37:26;102111.94;;;13.84;63.25
23281;BME280;11809;56.390;-3.266;2023-11-21T03:39:59;102109.44;;;13.80;63.14
23281;BME280;11809;56.390;-3.266;2023-11-21T03:42:31;102116.50;;;13.79;63.12
23281;BME280;11809;56.390;-3.266;2023-11-21T03:45:02;102116.56;;;13.78;63.33
23281;BME280;11809;56.390;-3.266;2023-11-21T03:47:33;102129.78;;;13.76;63.58
23281;BME280;11809;56.390;-3.266;2023-11-21T03:50:04;102135.06;;;13.76;63.70
23281;BME280;11809;56.390;-3.266;2023-11-21T03:52:37;102116.78;;;13.70;63.61
23281;BME280;11809;56.390;-3.266;2023-11-21T03:55:10;102141.31;;;13.74;63.75
23281;BME280;11809;56.390;-3.266;2023-11-21T03:57:42;102130.09;;;13.66;63.53
23281;BME280;11809;56.390;-3.266;2023-11-21T04:00:13;102146.66;;;13.72;63.42
23281;BME280;11809;56.390;-3.266;2023-11-21T04:02:45;102157.25;;;13.71;63.78
23281;BME280;11809;56.390;-3.266;2023-11-21T04:05:15;102154.66;;;13.69;63.59
23281;BME280;11809;56.390;-3.266;2023-11-21T04:07:46;102153.97;;;13.63;63.73
23281;BME280;11809;56.390;-3.266;2023-11-21T04:10:19;102172.34;;;13.67;63.87
23281;BME280;11809;56.390;-3.266;2023-11-21T04:12:49;102162.84;;;13.60;63.73
23281;BME280;11809;56.390;-3.266;2023-11-21T04:15:20;102176.75;;;13.67;63.35
23281;BME280;11809;56.390;-3.266;2023-11-21T04:17:50;102182.91;;;13.67;63.58
23281;BME280;11809;56.390;-3.266;2023-11-21T04:20:20;102178.69;;;13.60;63.35
23281;BME280;11809;56.390;-3.266;2023-11-21T04:22:51;102197.91;;;13.67;63.75
23281;BME280;11809;56.390;-3.266;2023-11-21T04:25:24;102190.00;;;13.65;63.47
23281;BME280;11809;56.390;-3.266;2023-11-21T04:27:55;102194.44;;;13.65;63.47
23281;BME280;11809;56.390;-3.266;2023-11-21T04:30:25;102196.16;;;13.66;63.58
23281;BME280;11809;56.390;-3.266;2023-11-21T04:32:56;102207.59;;;13.66;63.77
23281;BME280;11809;56.390;-3.266;2023-11-21T04:35:27;102212.94;;;13.65;63.58
23281;BME280;11809;56.390;-3.266;2023-11-21T04:37:57;102210.28;;;13.65;63.59
23281;BME280;11809;56.390;-3.266;2023-11-21T04:40:30;102207.66;;;13.63;63.58
23281;BME280;11809;56.390;-3.266;2023-11-21T04:43:00;102212.09;;;13.63;63.87
23281;BME280;11809;56.390;-3.266;2023-11-21T04:45:31;102213.00;;;13.62;63.82
23281;BME280;11809;56.390;-3.266;2023-11-21T04:48:01;102214.72;;;13.63;63.45
23281;BME280;11809;56.390;-3.266;2023-11-21T04:50:32;102208.69;;;13.58;63.94
23281;BME280;11809;56.390;-3.266;2023-11-21T04:53:02;102209.50;;;13.61;63.51
23281;BME280;11809;56.390;-3.266;2023-11-21T04:55:35;102222.75;;;13.60;63.59
23281;BME280;11809;56.390;-3.266;2023-11-21T04:58:06;102222.56;;;13.66;63.63
23281;BME280;11809;56.390;-3.266;2023-11-21T05:00:37;102210.38;;;13.60;63.61
23281;BME280;11809;56.390;-3.266;2023-11-21T05:03:07;102221.69;;;13.65;63.54
23281;BME280;11809;56.390;-3.266;2023-11-21T05:05:38;102217.41;;;13.61;63.63
23281;BME280;11809;56.390;-3.266;2023-11-21T05:08:08;102219.31;;;13.56;63.68
23281;BME280;11809;56.390;-3.266;2023-11-21T05:10:41;102223.78;;;13.54;63.58
23281;BME280;11809;56.390;-3.266;2023-11-21T05:13:11;102234.16;;;13.60;63.76
23281;BME280;11809;56.390;-3.266;2023-11-21T05:15:44;102237.75;;;13.59;63.30
23281;BME280;11809;56.390;-3.266;2023-11-21T05:18:15;102240.31;;;13.61;63.57
23281;BME280;11809;56.390;-3.266;2023-11-21T05:20:45;102248.31;;;13.59;63.82
23281;BME280;11809;56.390;-3.266;2023-11-21T05:23:16;102250.94;;;13.59;63.61
23281;BME280;11809;56.390;-3.266;2023-11-21T05:25:49;102245.59;;;13.61;63.86
23281;BME280;11809;56.390;-3.266;2023-11-21T05:28:20;102254.47;;;13.60;63.73
23281;BME280;11809;56.390;-3.266;2023-11-21T05:30:50;102253.59;;;13.59;63.83
23281;BME280;11809;56.390;-3.266;2023-11-21T05:33:40;102256.22;;;13.59;63.71
23281;BME280;11809;56.390;-3.266;2023-11-21T05:36:11;102265.03;;;13.60;63.63
23281;BME280;11809;56.390;-3.266;2023-11-21T05:38:41;102277.31;;;13.61;63.57
23281;BME280;11809;56.390;-3.266;2023-11-21T05:41:15;102267.69;;;13.58;63.89
23281;BME280;11809;56.390;-3.266;2023-11-21T05:43:45;102260.63;;;13.59;63.76
23281;BME280;11809;56.390;-3.266;2023-11-21T05:46:16;102265.03;;;13.60;63.76
23281;BME280;11809;56.390;-3.266;2023-11-21T05:48:46;102267.59;;;13.61;63.69
23281;BME280;11809;56.390;-3.266;2023-11-21T05:51:17;102271.81;;;13.68;63.67
23281;BME280;11809;56.390;-3.266;2023-11-21T05:53:47;102268.13;;;13.75;63.22
23281;BME280;11809;56.390;-3.266;2023-11-21T05:56:20;102263.81;;;13.71;63.44
23281;BME280;11809;56.390;-3.266;2023-11-21T05:58:51;102281.13;;;13.81;63.30
23281;BME280;11809;56.390;-3.266;2023-11-21T06:01:21;102281.25;;;13.78;63.15
23281;BME280;11809;56.390;-3.266;2023-11-21T06:03:52;102280.16;;;13.85;63.00
23281;BME280;11809;56.390;-3.266;2023-11-21T06:06:22;102280.97;;;13.87;62.86
23281;BME280;11809;56.390;-3.266;2023-11-21T06:08:53;102284.56;;;13.85;63.25
23281;BME280;11809;56.390;-3.266;2023-11-21T06:11:26;102279.41;;;13.80;63.40
23281;BME280;11809;56.390;-3.266;2023-11-21T06:13:56;102294.25;;;13.86;63.08
23281;BME280;11809;56.390;-3.266;2023-11-21T06:16:27;102296.75;;;13.90;63.18
23281;BME280;11809;56.390;-3.266;2023-11-21T06:18:57;102286.25;;;13.87;63.22
23281;BME280;11809;56.390;-3.266;2023-11-21T06:21:28;102306.22;;;13.99;63.39
23281;BME280;11809;56.390;-3.266;2023-11-21T06:23:58;102311.34;;;14.04;63.28
23281;BME280;11809;56.390;-3.266;2023-11-21T06:26:31;102322.75;;;14.06;63.24
23281;BME280;11809;56.390;-3.266;2023-11-21T06:29:02;102331.53;;;14.08;63.36
23281;BME280;11809;56.390;-3.266;2023-11-21T06:31:32;102323.47;;;14.11;63.41
23281;BME280;11809;56.390;-3.266;2023-11-21T06:34:03;102319.94;;;14.12;63.31
23281;BME280;11809;56.390;-3.266;2023-11-21T06:36:33;102316.50;;;14.08;63.35
23281;BME280;11809;56.390;-3.266;2023-11-21T06:39:03;102336.53;;;14.17;63.25
23281;BME280;11809;56.390;-3.266;2023-11-21T06:41:38;102321.72;;;14.11;63.20
23281;BME280;11809;56.390;-3.266;2023-11-21T06:44:08;102336.47;;;14.20;63.19
23281;BME280;11809;56.390;-3.266;2023-11-21T06:46:38;102341.75;;;14.20;63.27
23281;BME280;11809;56.390;-3.266;2023-11-21T06:49:09;102338.31;;;14.16;63.36
23281;BME280;11809;56.390;-3.266;2023-11-21T06:51:40;102343.66;;;14.15;63.35
23281;BME280;11809;56.390;-3.266;2023-11-21T06:54:10;102335.88;;;14.09;63.64
23281;BME280;11809;56.390;-3.266;2023-11-21T06:56:44;102342.00;;;14.11;63.60
23281;BME280;11809;56.390;-3.266;2023-11-21T06:59:14;102358.88;;;14.05;63.83
23281;BME280;11809;56.390;-3.266;2023-11-21T07:01:45;102355.41;;;14.03;63.70
23281;BME280;11809;56.390;-3.266;2023-11-21T07:04:15;102346.84;;;13.95;63.60
23281;BME280;11809;56.390;-3.266;2023-11-21T07:06:46;102364.22;;;14.04;63.73
23281;BME280;11809;56.390;-3.266;2023-11-21T07:09:16;102362.47;;;14.04;63.49
23281;BME280;11809;56.390;-3.266;2023-11-21T07:11:52;102369.38;;;14.08;63.38
23281;BME280;11809;56.390;-3.266;2023-11-21T07:14:22;102364.16;;;14.07;63.39
23281;BME280;11809;56.390;-3.266;2023-11-21T07:16:53;102366.72;;;14.08;63.35
23281;BME280;11809;56.390;-3.266;2023-11-21T07:19:24;102357.84;;;14.11;63.10
23281;BME280;11809;56.390;-3.266;2023-11-21T07:21:54;102374.38;;;14.19;63.29
23281;BME280;11809;56.390;-3.266;2023-11-21T07:24:25;102385.91;;;14.16;62.99
23281;BME280;11809;56.390;-3.266;2023-11-21T07:26:58;102367.44;;;13.82;59.87
23281;BME280;11809;56.390;-3.266;2023-11-21T07:29:28;102388.59;;;13.82;59.99
23281;BME280;11809;56.390;-3.266;2023-11-21T07:32:00;102376.13;;;13.87;60.88
23281;BME280;11809;56.390;-3.266;2023-11-21T07:34:30;102378.72;;;13.89;61.65
23281;BME280;11809;56.390;-3.266;2023-11-21T07:37:04;102372.56;;;13.88;62.17
23281;BME280;11809;56.390;-3.266;2023-11-21T07:39:34;102378.75;;;13.87;62.28
23281;BME280;11809;56.390;-3.266;2023-11-21T07:42:12;102386.75;;;13.84;62.29
23281;BME280;11809;56.390;-3.266;2023-11-21T07:44:42;102394.75;;;13.83;62.45
23281;BME280;11809;56.390;-3.266;2023-11-21T07:47:13;102405.31;;;13.83;62.60
23281;BME280;11809;56.390;-3.266;2023-11-21T07:49:43;102404.50;;;13.81;62.86
23281;BME280;11809;56.390;-3.266;2023-11-21T07:52:14;102400.16;;;13.78;62.89
23281;BME280;11809;56.390;-3.266;2023-11-21T07:54:45;102403.69;;;13.77;62.98
23281;BME280;11809;56.390;-3.266;2023-11-21T07:57:18;102383.63;;;13.70;62.96
23281;BME280;11809;56.390;-3.266;2023-11-21T07:59:48;102385.41;;;13.70;63.14
23281;BME280;11809;56.390;-3.266;2023-11-21T08:02:21;102401.03;;;13.77;63.10
23281;BME280;11809;56.390;-3.266;2023-11-21T08:04:51;102402.81;;;13.77;63.40
23281;BME280;11809;56.390;-3.266;2023-11-21T08:07:24;102408.97;;;13.77;63.35
23281;BME280;11809;56.390;-3.266;2023-11-21T08:09:55;102408.81;;;13.83;63.35
23281;BME280;11809;56.390;-3.266;2023-11-21T08:12:28;102414.19;;;13.80;63.29
23281;BME280;11809;56.390;-3.266;2023-11-21T08:14:58;102421.25;;;13.80;63.28
23281;BME280;11809;56.390;-3.266;2023-11-21T08:17:29;102421.25;;;13.80;63.52
23281;BME280;11809;56.390;-3.266;2023-11-21T08:20:00;102432.69;;;13.79;63.52
23281;BME280;11809;56.390;-3.266;2023-11-21T08:22:31;102431.88;;;13.78;63.71
23281;BME280;11809;56.390;-3.266;2023-11-21T08:25:02;102429.22;;;13.78;63.49
23281;BME280;11809;56.390;-3.266;2023-11-21T08:27:35;102432.75;;;13.77;63.70
23281;BME280;11809;56.390;-3.266;2023-11-21T08:30:06;102437.16;;;13.78;63.72
23281;BME280;11809;56.390;-3.266;2023-11-21T08:32:37;102434.50;;;13.78;63.74
23281;BME280;11809;56.390;-3.266;2023-11-21T08:35:08;102426.56;;;13.78;63.80
23281;BME280;11809;56.390;-3.266;2023-11-21T08:37:39;102422.19;;;13.77;63.59
23281;BME280;11809;56.390;-3.266;2023-11-21T08:40:11;102424.84;;;13.76;63.64
23281;BME280;11809;56.390;-3.266;2023-11-21T08:42:47;102429.28;;;13.75;63.82
23281;BME280;11809;56.390;-3.266;2023-11-21T08:45:20;102441.56;;;13.76;63.75
23281;BME280;11809;56.390;-3.266;2023-11-21T08:47:51;102432.94;;;13.70;64.01
23281;BME280;11809;56.390;-3.266;2023-11-21T08:50:22;102442.50;;;13.75;63.89
23281;BME280;11809;56.390;-3.266;2023-11-21T08:52:52;102441.63;;;13.75;63.69
23281;BME280;11809;56.390;-3.266;2023-11-21T08:55:23;102451.28;;;13.76;63.87
23281;BME280;11809;56.390;-3.266;2023-11-21T08:57:56;102447.78;;;13.75;63.75
23281;BME280;11809;56.390;-3.266;2023-11-21T09:00:28;102456.59;;;13.74;63.89
23281;BME280;11809;56.390;-3.266;2023-11-21T09:02:58;102465.41;;;13.75;63.92
23281;BME280;11809;56.390;-3.266;2023-11-21T09:05:29;102465.41;;;13.75;63.82
23281;BME280;11809;56.390;-3.266;2023-11-21T09:07:57;102459.25;;;13.74;63.97
23281;BME280;11809;56.390;-3.266;2023-11-21T09:10:28;102448.69;;;13.74;63.89
23281;BME280;11809;56.390;-3.266;2023-11-21T09:13:02;102455.72;;;13.74;64.00
23281;BME280;11809;56.390;-3.266;2023-11-21T09:15:33;102467.19;;;13.74;63.96
23281;BME280;11809;56.390;-3.266;2023-11-21T09:18:04;102456.59;;;13.74;64.15
23281;BME280;11809;56.390;-3.266;2023-11-21T09:20:35;102432.94;;;13.70;64.10
23281;BME280;11809;56.390;-3.266;2023-11-21T09:23:07;102446.66;;;13.85;63.96
23281;BME280;11809;56.390;-3.266;2023-11-21T09:25:39;102452.81;;;13.86;64.01
23281;BME280;11809;56.390;-3.266;2023-11-21T09:28:20;102457.25;;;13.84;64.02
23281;BME280;11809;56.390;-3.266;2023-11-21T09:30:51;102464.25;;;13.86;64.09
23281;BME280;11809;56.390;-3.266;2023-11-21T09:33:23;102461.50;;;13.89;64.73
23281;BME280;11809;56.390;-3.266;2023-11-21T09:35:56;102454.53;;;13.87;65.16
23281;BME280;11809;56.390;-3.266;2023-11-21T09:38:27;102449.22;;;13.88;64.85
23281;BME280;11809;56.390;-3.266;2023-11-21T09:40:58;102451.88;;;13.88;65.18
23281;BME280;11809;56.390;-3.266;2023-11-21T09:43:32;102463.19;;;13.92;64.88
23281;BME280;11809;56.390;-3.266;2023-11-21T09:46:06;102459.63;;;13.94;65.01
23281;BME280;11809;56.390;-3.266;2023-11-21T09:48:40;102448.97;;;13.97;65.26
23281;BME280;11809;56.390;-3.266;2023-11-21T09:51:11;102464.81;;;13.99;65.29
23281;BME280;11809;56.390;-3.266;2023-11-21T09:53:44;102465.69;;;14.00;65.12
23281;BME280;11809;56.390;-3.266;2023-11-21T09:56:19;102470.97;;;14.00;64.88
23281;BME280;11809;56.390;-3.266;2023-11-21T09:58:55;102455.09;;;14.00;65.25
23281;BME280;11809;56.390;-3.266;2023-11-21T10:01:31;102472.69;;;14.01;65.13
23281;BME280;11809;56.390;-3.266;2023-11-21T10:04:03;102477.91;;;14.04;64.83
23281;BME280;11809;56.390;-3.266;2023-11-21T10:06:39;102471.75;;;14.03;65.17
23281;BME280;11809;56.390;-3.266;2023-11-21T10:09:10;102470.88;;;14.03;65.49
23281;BME280;11809;56.390;-3.266;2023-11-21T10:11:43;102458.50;;;14.05;64.93
23281;BME280;11809;56.390;-3.266;2023-11-21T10:14:18;102468.19;;;14.04;63.26
23281;BME280;11809;56.390;-3.266;2023-11-21T10:16:50;102476.63;;;13.84;58.89
23281;BME280;11809;56.390;-3.266;2023-11-21T10:19:22;102478.75;;;13.70;57.46
23281;BME280;11809;56.390;-3.266;2023-11-21T10:21:54;102472.09;;;13.54;57.15
23281;BME280;11809;56.390;-3.266;2023-11-21T10:24:27;102469.25;;;13.62;57.57
23281;BME280;11809;56.390;-3.266;2023-11-21T10:27:11;102461.03;;;13.74;59.17
23281;BME280;11809;56.390;-3.266;2023-11-21T10:29:44;102474.09;;;13.80;59.90
23281;BME280;11809;56.390;-3.266;2023-11-21T10:32:14;102454.84;;;13.73;60.19
23281;BME280;11809;56.390;-3.266;2023-11-21T10:34:55;102463.53;;;13.80;60.50
23281;BME280;11809;56.390;-3.266;2023-11-21T10:37:27;102460.00;;;13.79;60.80
23281;BME280;11809;56.390;-3.266;2023-11-21T10:39:59;102457.28;;;13.82;60.95
23281;BME280;11809;56.390;-3.266;2023-11-21T10:42:29;102452.69;;;13.90;61.41
23281;BME280;11809;56.390;-3.266;2023-11-21T10:45:06;102461.38;;;13.95;61.32
23281;BME280;11809;56.390;-3.266;2023-11-21T10:47:41;102458.78;;;13.92;61.13
23281;BME280;11809;56.390;-3.266;2023-11-21T10:50:12;102462.25;;;13.94;61.65
23281;BME280;11809;56.390;-3.266;2023-11-21T10:52:45;102476.31;;;13.96;61.77
23281;BME280;11809;56.390;-3.266;2023-11-21T10:55:17;102471.03;;;13.96;61.83
23281;BME280;11809;56.390;-3.266;2023-11-21T10:57:52;102468.34;;;13.98;61.92
23281;BME280;11809;56.390;-3.266;2023-11-21T11:00:26;102474.50;;;13.98;61.92
23281;BME280;11809;56.390;-3.266;2023-11-21T11:02:57;102469.16;;;14.02;62.19
23281;BME280;11809;56.390;-3.266;2023-11-21T11:05:28;102462.38;;;13.91;62.05
23281;BME280;11809;56.390;-3.266;2023-11-21T11:08:03;102471.81;;;14.00;62.43
23281;BME280;11809;56.390;-3.266;2023-11-21T11:10:34;102475.38;;;13.99;62.41
23281;BME280;11809;56.390;-3.266;2023-11-21T11:13:07;102446.50;;;13.91;62.63
23281;BME280;11809;56.390;-3.266;2023-11-21T11:15:40;102451.53;;;14.01;62.71
23281;BME280;11809;56.390;-3.266;2023-11-21T11:18:11;102444.44;;;14.03;62.41
23281;BME280;11809;56.390;-3.266;2023-11-21T11:20:43;102448.88;;;14.02;62.62
23281;BME280;11809;56.390;-3.266;2023-11-21T11:23:31;102432.22;;;13.98;62.68
23281;BME280;11809;56.390;-3.266;2023-11-21T11:26:15;102436.41;;;14.06;62.46
23281;BME280;11809;56.390;-3.266;2023-11-21T11:29:00;102426.78;;;14.05;62.68
23281;BME280;11809;56.390;-3.266;2023-11-21T11:31:48;102419.66;;;14.07;62.69
23281;BME280;11809;56.390;-3.266;2023-11-21T11:34:28;102424.06;;;14.06;62.71
23281;BME280;11809;56.390;-3.266;2023-11-21T11:37:02;102419.69;;;14.05;62.58
23281;BME280;11809;56.390;-3.266;2023-11-21T11:39:36;102433.47;;;14.18;62.58
23281;BME280;11809;56.390;-3.266;2023-11-21T11:42:12;102423.66;;;14.21;62.82
23281;BME280;11809;56.390;-3.266;2023-11-21T11:44:48;102425.19;;;14.30;62.73
23281;BME280;11809;56.390;-3.266;2023-11-21T11:47:25;102434.88;;;14.31;62.99
23281;BME280;11809;56.390;-3.266;2023-11-21T11:50:03;102432.19;;;14.34;63.23
23281;BME280;11809;56.390;-3.266;2023-11-21T11:52:41;102419.09;;;14.28;63.28
23281;BME280;11809;56.390;-3.266;2023-11-21T11:55:13;102425.97;;;14.35;63.64
23281;BME280;11809;56.390;-3.266;2023-11-21T11:57:46;102432.09;;;14.37;63.56
23281;BME280;11809;56.390;-3.266;2023-11-21T12:00:18;102438.25;;;14.37;63.83
23281;BME280;11809;56.390;-3.266;2023-11-21T12:02:51;102439.16;;;14.36;63.79
23281;BME280;11809;56.390;-3.266;2023-11-21T12:05:25;102433.63;;;14.12;60.10
23281;BME280;11809;56.390;-3.266;2023-11-21T12:07:56;102430.00;;;14.16;60.17
23281;BME280;11809;56.390;-3.266;2023-11-21T12:10:30;102435.78;;;14.31;61.22
23281;BME280;11809;56.390;-3.266;2023-11-21T12:13:02;102440.13;;;14.34;61.25
23281;BME280;11809;56.390;-3.266;2023-11-21T12:15:34;102428.09;;;14.21;61.73
23281;BME280;11809;56.390;-3.266;2023-11-21T12:18:09;102431.50;;;14.24;62.27
23281;BME280;11809;56.390;-3.266;2023-11-21T12:20:40;102414.97;;;14.18;62.21
23281;BME280;11809;56.390;-3.266;2023-11-21T12:23:14;102434.22;;;14.23;62.70
23281;BME280;11809;56.390;-3.266;2023-11-21T12:25:45;102445.63;;;14.25;62.86
23281;BME280;11809;56.390;-3.266;2023-11-21T12:28:15;102450.78;;;14.29;63.22
23281;BME280;11809;56.390;-3.266;2023-11-21T12:30:46;102442.84;;;14.29;63.17
23281;BME280;11809;56.390;-3.266;2023-11-21T12:33:20;102436.69;;;14.29;63.23
23281;BME280;11809;56.390;-3.266;2023-11-21T12:35:53;102432.22;;;14.31;63.00
23281;BME280;11809;56.390;-3.266;2023-11-21T12:38:25;102434.84;;;14.34;63.22
23281;BME280;11809;56.390;-3.266;2023-11-21T12:40:55;102433.81;;;14.39;63.43
23281;BME280;11809;56.390;-3.266;2023-11-21T12:43:26;102429.66;;;14.28;63.05
23281;BME280;11809;56.390;-3.266;2023-11-21T12:46:05;102438.38;;;14.33;63.23
23281;BME280;11809;56.390;-3.266;2023-11-21T12:48:41;102419.16;;;14.25;63.46
23281;BME280;11809;56.390;-3.266;2023-11-21T12:51:12;102391.09;;;14.21;63.68
23281;BME280;11809;56.390;-3.266;2023-11-21T12:53:45;102408.50;;;14.28;63.40
23281;BME280;11809;56.390;-3.266;2023-11-21T12:56:16;102411.22;;;14.26;63.65
23281;BME280;11809;56.390;-3.266;2023-11-21T12:58:47;102415.63;;;14.26;63.63
23281;BME280;11809;56.390;-3.266;2023-11-21T13:01:18;102415.63;;;14.26;63.68
23281;BME280;11809;56.390;-3.266;2023-11-21T13:03:53;102412.63;;;14.06;59.01